香港 の空港の天気 - METARとTAF

香港国際空港 ( VHHH / HKG ) - 香港 赤リョウ角
飛行場実況気象(Metar)
観測時間01/29 15:00 HKT (01/29 07:00 UTC)
風向・風速西北西 4m/s
視程10km以上
天気現象
少しの雲 雲底高度 550m
全天の4割程度の雲 雲底高度 1010m
気温20℃
湿度73%
気圧1012hPa
METARVHHH 290700Z 30008KT 260V340 9999 FEW018 SCT033 20/15 Q1012 NOSIG
過去の天気等 Google飛行場航空写真 Wunderground天気予報

過去48時間のMETAR

飛行場予報(TAF)
発表時間: 1/29 13:00 HKT (1/29 05:00 UTC)
予報対象時間: 29日14時 HKT ~ 30日20時 HKT
風向・風速西北西 5m/s
視程7000m
少しの雲 雲底高度 460m
全天の4割程度の雲 雲底高度 910m
29日18時 HKT ~ 29日22時 HKT に一時的に
風向・風速不定 3m/s
29日22時 HKT ~ 29日24時 HKT に徐々に
風向・風速北 5m/s
30日0時 HKT ~ 30日6時 HKT に一時的に
視程4000m
天気現象もや 弱い雨
TAF VHHH 290500Z 2906/3012 29010KT 7000 FEW015 SCT030 TX21/2906Z TX17/3006Z TN12/2923Z
TEMPO 2910/2914 VRB05KT
BECMG 2914/2916 36010KT
TEMPO 2916/2922 4000 BR -RA